Time;durP1;ratioP1;P1;durP2;ratioP2;P2;SDS_P1;SDS_P2;PMS_P1;PMS_P2;Temp;Humidity;BMP_temperature;BMP_pressure;BME280_temperature;BME280_humidity;BME280_pressure;Samples;Min_cycle;Max_cycle;Signal;HPM_P1;HPM_P2
2022/05/09 00:00:30;;;;;;;144.50;78.52;;;;;;;14.04;37.30;100742.45;1761342;81;20970;-57
2022/05/09 00:02:58;;;;;;;144.17;79.58;;;;;;;14.00;37.17;100735.47;1761470;79;20934;-56
2022/05/09 00:05:27;;;;;;;150.65;78.20;;;;;;;13.96;37.17;100742.61;1760252;80;21326;-59
2022/05/09 00:07:54;;;;;;;135.93;75.08;;;;;;;13.94;37.24;100744.12;1760248;81;21280;-57
2022/05/09 00:10:24;;;;;;;126.42;73.47;;;;;;;13.86;37.36;100739.84;1761563;80;21537;-58
2022/05/09 00:12:51;;;;;;;137.22;76.62;;;;;;;13.86;37.33;100739.84;1759593;81;21068;-59
2022/05/09 00:15:20;;;;;;;138.65;75.45;;;;;;;13.80;37.45;100734.05;1760428;80;20933;-64
2022/05/09 00:17:49;;;;;;;127.75;69.87;;;;;;;13.73;37.48;100737.12;1748647;80;21021;-57
2022/05/09 00:20:16;;;;;;;137.60;77.15;;;;;;;13.69;37.49;100734.59;1760067;81;20973;-55
2022/05/09 00:22:53;;;;;;;155.75;87.90;;;;;;;13.67;37.67;100739.70;1758914;81;20978;-54
2022/05/09 00:25:24;;;;;;;157.93;90.07;;;;;;;13.63;38.11;100737.96;1759777;81;21053;-61
2022/05/09 00:27:51;;;;;;;166.22;98.92;;;;;;;13.65;38.29;100740.41;1748707;81;22423;-55
2022/05/09 00:30:18;;;;;;;178.15;104.43;;;;;;;13.59;38.78;100738.03;1760444;81;21145;-56
2022/05/09 00:32:45;;;;;;;159.03;92.88;;;;;;;13.56;39.45;100740.55;1759535;80;20991;-55
2022/05/09 00:35:12;;;;;;;154.60;91.97;;;;;;;13.46;40.40;100739.27;1759959;81;21755;-55
2022/05/09 00:37:40;;;;;;;142.32;83.87;;;;;;;13.41;41.10;100733.77;1759405;81;21514;-62
2022/05/09 00:40:10;;;;;;;154.47;83.20;;;;;;;13.33;41.45;100730.31;1761241;80;21265;-55
2022/05/09 00:42:40;;;;;;;139.30;76.95;;;;;;;13.27;41.55;100730.25;1760945;79;21956;-55
2022/05/09 00:45:08;;;;;;;135.57;75.42;;;;;;;13.21;41.25;100725.22;1760624;80;20994;-60
2022/05/09 00:47:35;;;;;;;131.10;76.33;;;;;;;13.24;40.73;100714.91;1760156;80;21064;-56
2022/05/09 00:50:05;;;;;;;129.68;72.90;;;;;;;13.26;40.56;100725.52;1760183;81;21048;-59
2022/05/09 00:52:44;;;;;;;139.03;78.90;;;;;;;13.12;40.68;100728.98;1760885;80;20945;-57
2022/05/09 00:55:22;;;;;;;136.77;78.92;;;;;;;13.18;40.58;100720.86;1760708;80;21890;-65
2022/05/09 00:58:00;;;;;;;132.52;73.20;;;;;;;13.10;40.72;100715.25;1760643;80;21060;-57
2022/05/09 01:00:28;;;;;;;142.95;79.20;;;;;;;13.07;40.71;100710.42;1760539;80;21795;-56
2022/05/09 01:03:11;;;;;;;128.30;71.67;;;;;;;13.20;40.30;100709.21;1760024;81;20930;-65
2022/05/09 01:05:39;;;;;;;131.63;71.33;;;;;;;12.77;40.97;100717.08;1760299;80;20949;-61
2022/05/09 01:08:06;;;;;;;138.90;73.75;;;;;;;12.75;41.23;100713.83;1760606;80;21836;-57
2022/05/09 01:10:35;;;;;;;127.35;72.95;;;;;;;12.70;41.54;100707.05;1760200;81;21609;-55
2022/05/09 01:13:07;;;;;;;126.47;70.35;;;;;;;12.81;41.48;100709.67;1760413;80;21008;-57
2022/05/09 01:15:34;;;;;;;131.20;73.07;;;;;;;13.02;41.18;100712.27;1760575;80;21072;-65
2022/05/09 01:18:04;;;;;;;133.00;76.07;;;;;;;12.95;41.36;100709.28;1759941;81;21657;-56
2022/05/09 01:20:32;;;;;;;131.57;72.97;;;;;;;12.72;41.95;100706.84;1763702;80;21318;-58
2022/05/09 01:22:59;;;;;;;133.18;74.75;;;;;;;12.85;41.87;100705.69;1770617;80;20958;-58
2022/05/09 01:25:28;;;;;;;126.95;70.40;;;;;;;12.71;42.29;100702.63;1760511;80;21045;-64
2022/05/09 01:27:55;;;;;;;134.85;72.92;;;;;;;12.37;43.02;100702.75;1760914;80;20937;-56
2022/05/09 01:30:46;;;;;;;134.12;75.67;;;;;;;12.42;43.05;100703.00;1761026;80;21100;-57
2022/05/09 01:33:36;;;;;;;125.97;67.95;;;;;;;12.32;43.29;100698.08;1757120;80;21857;-57
2022/05/09 01:36:16;;;;;;;121.25;64.17;;;;;;;12.39;43.26;100695.05;1759498;81;21471;-58
2022/05/09 01:38:55;;;;;;;144.22;70.45;;;;;;;12.39;43.04;100691.13;1759460;81;21049;-55
2022/05/09 01:41:22;;;;;;;135.95;72.55;;;;;;;12.20;43.39;100700.86;1760169;81;20984;-56
2022/05/09 01:43:52;;;;;;;131.22;67.72;;;;;;;12.05;43.59;100691.73;1747489;81;20978;-56
2022/05/09 01:46:22;;;;;;;124.05;66.05;;;;;;;12.04;43.72;100690.59;1759603;81;21170;-63
2022/05/09 01:51:37;;;;;;;124.87;65.35;;;;;;;11.99;43.78;100685.91;1760892;80;21382;-57
2022/05/09 01:54:05;;;;;;;117.25;64.27;;;;;;;12.05;43.57;100686.50;1759861;81;20978;-58
2022/05/09 01:56:35;;;;;;;112.62;61.50;;;;;;;11.92;43.57;100683.20;1760729;80;21100;-56
2022/05/09 01:59:02;;;;;;;116.80;62.25;;;;;;;11.97;43.64;100681.84;1760421;80;21131;-59
2022/05/09 02:01:37;;;;;;;120.75;60.33;;;;;;;12.01;43.44;100681.80;1760479;80;21288;-58
2022/05/09 02:04:04;;;;;;;116.47;59.15;;;;;;;12.01;43.62;100680.02;1758809;81;20986;-56
2022/05/09 02:06:32;;;;;;;107.00;59.38;;;;;;;12.05;43.67;100677.86;1759594;81;21476;-57
2022/05/09 02:09:01;;;;;;;117.20;63.63;;;;;;;12.09;43.62;100674.69;1759333;81;20989;-60
2022/05/09 02:11:28;;;;;;;108.75;59.95;;;;;;;12.12;43.63;100668.27;1759583;81;21217;-59
2022/05/09 02:13:56;;;;;;;111.50;60.15;;;;;;;12.23;43.45;100669.11;1760148;80;21043;-57
2022/05/09 02:16:23;;;;;;;115.40;61.37;;;;;;;12.31;43.25;100665.10;1758873;81;20988;-63
2022/05/09 02:18:50;;;;;;;113.40;61.98;;;;;;;12.57;42.94;100667.66;1760353;80;21024;-59
2022/05/09 02:21:17;;;;;;;114.88;58.28;;;;;;;12.35;43.24;100666.35;1759446;81;20978;-57
2022/05/09 02:23:45;;;;;;;105.63;56.77;;;;;;;12.32;43.71;100664.09;1759991;81;21227;-57
2022/05/09 02:26:12;;;;;;;108.25;55.03;;;;;;;12.33;43.87;100667.52;1759823;81;21022;-66
2022/05/09 02:28:39;;;;;;;110.08;53.55;;;;;;;12.42;43.92;100667.70;1760890;80;21633;-57
2022/05/09 02:31:08;;;;;;;97.40;52.62;;;;;;;12.68;43.74;100666.37;1759298;81;21051;-56
2022/05/09 02:33:36;;;;;;;115.80;59.65;;;;;;;12.83;43.61;100661.38;1759847;80;21037;-55
2022/05/09 02:36:04;;;;;;;122.07;63.50;;;;;;;13.00;43.43;100661.14;1760555;80;21062;-56
2022/05/09 02:38:35;;;;;;;121.67;64.72;;;;;;;12.97;43.73;100660.20;1760431;80;21476;-55
2022/05/09 02:41:02;;;;;;;120.85;63.80;;;;;;;13.09;43.91;100662.61;1758556;81;20985;-57
2022/05/09 02:43:29;;;;;;;109.97;58.50;;;;;;;13.13;44.12;100655.99;1760704;80;21414;-56
2022/05/09 02:46:03;;;;;;;115.00;58.75;;;;;;;13.15;44.14;100655.31;1759978;81;21061;-56
2022/05/09 02:48:29;;;;;;;97.88;55.75;;;;;;;13.22;44.24;100654.88;1759591;80;21161;-57
2022/05/09 02:50:56;;;;;;;96.70;53.52;;;;;;;13.58;43.85;100657.84;1758932;81;21821;-60
2022/05/09 02:53:23;;;;;;;97.17;54.10;;;;;;;13.68;43.79;100656.20;1760113;80;21878;-56
2022/05/09 02:55:50;;;;;;;101.20;52.95;;;;;;;13.79;43.72;100653.84;1760018;81;21625;-55
2022/05/09 02:58:19;;;;;;;87.85;51.95;;;;;;;13.76;43.84;100657.34;1759053;81;20879;-55
2022/05/09 03:00:47;;;;;;;94.05;51.73;;;;;;;14.05;43.85;100654.94;1759848;81;21425;-55
2022/05/09 03:06:00;;;;;;;93.07;52.65;;;;;;;14.89;43.63;100655.05;1761626;79;21055;-64
2022/05/09 03:08:29;;;;;;;89.58;51.95;;;;;;;15.79;42.68;100647.77;1760389;81;22150;-55
2022/05/09 03:10:56;;;;;;;96.10;53.55;;;;;;;16.69;41.38;100643.77;1760929;79;21112;-56
2022/05/09 03:13:24;;;;;;;99.90;55.00;;;;;;;17.39;39.86;100634.91;1760770;81;22036;-58
2022/05/09 03:15:52;;;;;;;90.70;52.53;;;;;;;18.10;38.52;100632.97;1761509;79;21024;-56
2022/05/09 03:18:23;;;;;;;88.60;52.63;;;;;;;19.04;36.99;100628.44;1760886;81;21153;-55
2022/05/09 03:20:51;;;;;;;91.08;54.45;;;;;;;19.90;35.43;100622.35;1749722;79;21200;-55
2022/05/09 03:23:18;;;;;;;87.57;55.77;;;;;;;21.58;32.24;100614.95;1760824;81;21354;-59
2022/05/09 03:25:46;;;;;;;93.40;56.70;;;;;;;21.58;32.24;100614.95;1760032;81;21451;-63
2022/05/09 03:28:19;;;;;;;95.43;57.03;;;;;;;22.37;31.81;100618.19;1761631;79;22087;-57
2022/05/09 03:30:48;;;;;;;100.57;62.03;;;;;;;23.01;30.78;100616.31;1758745;81;21037;-61
2022/05/09 03:33:19;;;;;;;98.40;62.70;;;;;;;23.60;30.05;100614.45;1761090;81;21259;-56
2022/05/09 03:35:47;;;;;;;100.67;64.03;;;;;;;24.15;29.32;100613.04;1760038;81;21807;-60
2022/05/09 03:38:15;;;;;;;95.27;63.83;;;;;;;24.88;28.23;100608.25;1762323;79;21509;-55
2022/05/09 03:40:42;;;;;;;100.27;66.43;;;;;;;25.61;27.29;100609.63;1761565;79;21002;-60
2022/05/09 03:43:10;;;;;;;90.47;60.27;;;;;;;26.09;26.45;100608.05;1761034;81;21608;-55
2022/05/09 03:45:37;;;;;;;83.73;59.00;;;;;;;26.62;25.53;100607.41;1760933;79;20978;-62
2022/05/09 03:48:05;;;;;;;90.67;58.30;;;;;;;26.87;24.92;100609.05;1733901;81;22049;-57
2022/05/09 03:50:33;;;;;;;90.17;61.17;;;;;;;27.30;24.28;100607.80;1761974;79;21223;-62
2022/05/09 03:53:00;;;;;;;87.10;61.43;;;;;;;27.77;23.92;100596.76;1761527;79;20977;-55
2022/05/09 03:55:27;;;;;;;88.20;62.00;;;;;;;28.26;23.35;100605.69;1760914;79;21076;-63
2022/05/09 03:57:55;;;;;;;84.37;59.17;;;;;;;28.55;23.00;100598.78;1761713;79;20945;-57
2022/05/09 04:00:25;;;;;;;83.93;61.00;;;;;;;28.95;22.44;100594.33;1760725;81;21530;-56
2022/05/09 04:02:54;;;;;;;79.95;60.52;;;;;;;29.36;22.19;100600.23;1750100;79;21144;-56
2022/05/09 04:05:21;;;;;;;85.53;62.57;;;;;;;29.92;21.41;100592.31;1759835;81;21712;-56
2022/05/09 04:07:51;;;;;;;77.50;58.13;;;;;;;30.19;20.87;100590.91;1748165;81;22005;-57
2022/05/09 04:10:23;;;;;;;;;;;;;;;30.48;20.58;100585.60;1763314;80;21000;-62
2022/05/09 04:12:52;;;;;;;74.10;56.30;;;;;;;30.82;20.28;100593.63;1749057;81;20332;-55
2022/05/09 04:18:06;;;;;;;68.95;55.00;;;;;;;31.71;19.52;100587.83;1751128;81;21138;-59
2022/05/09 04:20:33;;;;;;;70.50;52.53;;;;;;;32.19;19.03;100584.15;1760553;80;21075;-56
2022/05/09 04:23:01;;;;;;;67.32;54.67;;;;;;;32.45;18.68;100590.08;1759600;81;22295;-55
2022/05/09 04:25:31;;;;;;;59.93;50.58;;;;;;;32.67;18.37;100583.66;1759744;81;21551;-56
2022/05/09 04:28:00;;;;;;;;;;;;;;;32.98;18.33;100589.34;1762169;81;21240;-56
2022/05/09 04:30:28;;;;;;;66.33;49.40;;;;;;;33.39;17.92;100583.22;1759946;81;20493;-57
2022/05/09 04:32:56;;;;;;;62.58;50.78;;;;;;;33.82;17.52;100580.75;1760119;81;21010;-55
2022/05/09 04:35:24;;;;;;;65.55;49.83;;;;;;;34.30;17.10;100578.00;1760064;80;20966;-55
2022/05/09 04:37:53;;;;;;;55.70;46.92;;;;;;;34.66;16.61;100576.48;1759744;81;21393;-62
2022/05/09 04:40:26;;;;;;;55.33;46.30;;;;;;;35.04;16.32;100575.63;1759743;81;21105;-57
2022/05/09 04:42:53;;;;;;;53.00;43.73;;;;;;;35.65;16.05;100573.36;1749857;80;21612;-55
2022/05/09 04:45:21;;;;;;;53.23;40.78;;;;;;;35.90;15.54;100568.60;1759521;80;21140;-57
2022/05/09 04:47:52;;;;;;;51.83;40.98;;;;;;;35.90;15.21;100570.53;1748924;80;21032;-56
2022/05/09 04:50:23;;;;;;;44.05;36.50;;;;;;;35.84;15.30;100571.36;1760221;81;21006;-56
2022/05/09 04:52:51;;;;;;;44.15;36.93;;;;;;;35.78;14.98;100572.73;1748635;81;21159;-55
2022/05/09 04:55:18;;;;;;;46.55;38.38;;;;;;;35.77;14.98;100567.09;1759952;80;20974;-56
2022/05/09 04:57:47;;;;;;;51.37;39.05;;;;;;;35.80;15.09;100567.19;1759463;81;21667;-56
2022/05/09 05:00:16;;;;;;;44.70;37.75;;;;;;;35.91;15.09;100563.96;1728212;81;21033;-57
2022/05/09 05:02:44;;;;;;;42.83;35.80;;;;;;;36.16;14.81;100557.88;1760306;80;21556;-57
2022/05/09 05:05:11;;;;;;;41.05;35.05;;;;;;;36.47;14.64;100562.55;1758913;81;22284;-56
2022/05/09 05:07:39;;;;;;;37.33;31.75;;;;;;;37.14;14.28;100555.77;1760188;81;21032;-56
2022/05/09 05:10:08;;;;;;;43.38;35.38;;;;;;;37.54;13.84;100557.38;1759549;81;21049;-59
2022/05/09 05:12:36;;;;;;;39.78;31.33;;;;;;;37.77;13.76;100549.27;1759657;81;23697;-63
2022/05/09 05:15:06;;;;;;;34.38;28.40;;;;;;;37.80;13.46;100552.05;1760307;80;20910;-57
2022/05/09 05:17:34;;;;;;;28.73;24.70;;;;;;;37.83;13.54;100549.20;1760174;81;21130;-57
2022/05/09 05:20:02;;;;;;;34.45;24.75;;;;;;;37.97;13.16;100547.55;1759879;81;20898;-62
2022/05/09 05:22:30;;;;;;;29.32;22.82;;;;;;;38.14;13.23;100547.64;1759883;80;20984;-56
2022/05/09 05:24:57;;;;;;;24.85;18.70;;;;;;;38.21;13.06;100542.89;1760430;81;21005;-56
2022/05/09 05:27:27;;;;;;;20.52;16.67;;;;;;;38.38;12.72;100542.44;1716725;81;21598;-57
2022/05/09 05:29:57;;;;;;;20.70;15.88;;;;;;;38.22;12.58;100532.20;1761254;80;21244;-55
2022/05/09 05:32:26;;;;;;;19.60;16.15;;;;;;;37.96;12.79;100537.82;1759851;80;22147;-56
2022/05/09 05:34:53;;;;;;;22.80;15.95;;;;;;;38.01;13.06;100538.09;1761114;80;21040;-56
2022/05/09 05:37:21;;;;;;;20.17;17.00;;;;;;;38.31;12.78;100536.06;1760939;80;20982;-56
2022/05/09 05:39:48;;;;;;;19.42;15.70;;;;;;;38.27;12.87;100532.50;1760531;81;21088;-54
2022/05/09 05:42:17;;;;;;;17.98;14.63;;;;;;;38.35;12.74;100532.27;1759975;80;21243;-56
2022/05/09 05:44:47;;;;;;;17.60;14.13;;;;;;;38.58;12.82;100531.45;1760838;80;22072;-56
2022/05/09 05:47:16;;;;;;;14.45;12.18;;;;;;;38.57;12.70;100527.16;1760136;81;20958;-56
2022/05/09 05:49:43;;;;;;;14.98;12.15;;;;;;;38.61;12.56;100530.14;1760609;80;21077;-58
2022/05/09 05:52:11;;;;;;;16.15;11.83;;;;;;;38.66;12.69;100529.81;1760183;80;20910;-59
2022/05/09 05:54:40;;;;;;;16.48;11.18;;;;;;;38.71;12.75;100520.53;1760448;80;21701;-56
2022/05/09 05:57:22;;;;;;;15.83;12.75;;;;;;;38.73;12.64;100527.00;1760818;80;21518;-56
2022/05/09 05:59:58;;;;;;;15.20;11.15;;;;;;;38.87;12.63;100521.75;1731555;81;21095;-61
2022/05/09 06:02:25;;;;;;;14.47;10.82;;;;;;;39.02;12.54;100515.91;1760488;80;22045;-56
2022/05/09 06:04:52;;;;;;;16.60;11.20;;;;;;;39.16;12.55;100517.46;1760596;80;20966;-55
2022/05/09 06:07:22;;;;;;;15.32;10.63;;;;;;;39.18;12.55;100513.22;1760448;80;21101;-57
2022/05/09 06:09:50;;;;;;;14.07;9.93;;;;;;;39.06;12.55;100509.38;1748440;80;20996;-58
2022/05/09 06:12:21;;;;;;;13.32;9.85;;;;;;;39.16;12.48;100510.06;1760308;80;21028;-55
2022/05/09 06:15:34;;;;;;;17.10;11.65;;;;;;;39.09;12.67;100511.92;1749725;80;28125;-56
2022/05/09 06:17:18;;;;;;;16.10;9.40;;;;;;;39.23;12.43;100501.19;1742426;81;20946;-55
2022/05/09 06:19:45;;;;;;;12.43;9.85;;;;;;;39.25;12.40;100498.92;1759249;80;21232;-62
2022/05/09 06:22:13;;;;;;;12.63;10.13;;;;;;;39.23;12.41;100501.77;1759615;80;21024;-55
2022/05/09 06:24:40;;;;;;;15.10;11.30;;;;;;;39.39;12.41;100493.60;1760376;80;21449;-57
2022/05/09 06:27:07;;;;;;;11.83;9.68;;;;;;;39.40;12.49;100491.66;1760530;80;21033;-56
2022/05/09 06:29:34;;;;;;;14.47;10.78;;;;;;;39.81;12.33;100497.95;1758938;81;21517;-56
2022/05/09 06:32:02;;;;;;;11.97;9.60;;;;;;;39.91;12.09;100489.66;1759846;81;22061;-54
2022/05/09 06:34:29;;;;;;;14.47;10.15;;;;;;;39.99;12.01;100491.29;1759362;80;21094;-55
2022/05/09 06:36:56;;;;;;;13.93;9.68;;;;;;;39.95;12.07;100493.79;1759926;81;21466;-55
2022/05/09 06:39:24;;;;;;;13.10;9.18;;;;;;;39.99;12.18;100491.88;1759140;81;21774;-56
2022/05/09 06:41:53;;;;;;;12.35;9.48;;;;;;;40.27;11.94;100485.86;1760308;80;21009;-56
2022/05/09 06:44:20;;;;;;;13.30;10.05;;;;;;;40.23;11.93;100481.73;1759834;80;21164;-62
2022/05/09 06:46:47;;;;;;;11.48;8.33;;;;;;;40.31;11.91;100477.11;1761407;80;21247;-55
2022/05/09 06:49:14;;;;;;;13.65;8.70;;;;;;;40.45;11.91;100475.84;1760361;80;21029;-61
2022/05/09 06:51:43;;;;;;;15.25;9.18;;;;;;;40.73;11.74;100478.00;1759756;80;20939;-57
2022/05/09 06:54:10;;;;;;;13.28;10.15;;;;;;;41.20;11.84;100478.20;1759831;81;21462;-56
2022/05/09 06:56:37;;;;;;;10.58;8.13;;;;;;;41.47;11.65;100475.94;1760220;80;22067;-55
2022/05/09 06:59:04;;;;;;;10.93;9.20;;;;;;;41.67;11.43;100466.77;1759542;80;21268;-60
2022/05/09 07:01:33;;;;;;;14.25;10.15;;;;;;;41.75;11.24;100469.14;1760968;80;21081;-55
2022/05/09 07:04:00;;;;;;;11.38;8.73;;;;;;;41.95;11.48;100468.78;1760670;80;21025;-61
2022/05/09 07:06:28;;;;;;;13.70;8.98;;;;;;;42.01;11.30;100464.45;1760427;80;21049;-56
2022/05/09 07:08:55;;;;;;;10.88;8.95;;;;;;;42.21;11.52;100466.22;1761178;81;21311;-57
2022/05/09 07:11:22;;;;;;;9.93;8.58;;;;;;;42.39;11.38;100460.70;1760782;79;20937;-55
2022/05/09 07:13:49;;;;;;;14.05;7.50;;;;;;;42.67;10.99;100451.07;1749374;81;21073;-55
2022/05/09 07:16:17;;;;;;;10.40;6.78;;;;;;;42.66;10.50;100453.63;1760326;81;20925;-57
2022/05/09 07:18:45;;;;;;;9.13;5.83;;;;;;;42.62;10.40;100451.46;1761536;79;21092;-55
2022/05/09 07:21:12;;;;;;;11.03;6.95;;;;;;;42.59;10.52;100444.62;1760676;79;21471;-61
2022/05/09 07:23:40;;;;;;;11.15;8.05;;;;;;;42.66;10.66;100444.03;1760771;81;21457;-54
2022/05/09 07:26:07;;;;;;;8.80;6.97;;;;;;;42.74;10.59;100444.19;1761249;79;21377;-56
2022/05/09 07:28:34;;;;;;;12.30;7.60;;;;;;;42.75;10.50;100439.48;1760989;79;21034;-55
2022/05/09 07:31:02;;;;;;;10.58;7.45;;;;;;;42.75;10.44;100436.74;1761069;81;20977;-57
2022/05/09 07:33:29;;;;;;;8.93;5.25;;;;;;;42.53;10.78;100437.37;1759933;81;21765;-59
2022/05/09 07:35:57;;;;;;;6.72;5.03;;;;;;;42.27;10.32;100429.81;1761082;81;21330;-62
2022/05/09 07:38:24;;;;;;;9.45;4.33;;;;;;;42.19;10.45;100418.66;1761055;79;21010;-56
2022/05/09 07:40:52;;;;;;;6.75;4.08;;;;;;;42.20;10.02;100419.43;1761007;81;21830;-56
2022/05/09 07:43:25;;;;;;;5.10;3.20;;;;;;;42.07;9.57;100430.03;1761629;79;20930;-63
2022/05/09 07:45:54;;;;;;;6.22;3.22;;;;;;;41.62;9.31;100426.89;1750398;79;21225;-56
2022/05/09 07:48:22;;;;;;;6.53;3.80;;;;;;;41.19;9.88;100420.57;1760708;79;20883;-57
2022/05/09 07:50:49;;;;;;;4.75;3.12;;;;;;;41.06;10.15;100425.60;1750017;79;22049;-56
2022/05/09 07:53:20;;;;;;;5.20;3.00;;;;;;;40.80;9.83;100415.72;1760489;81;20981;-57
2022/05/09 07:55:48;;;;;;;8.30;3.40;;;;;;;40.49;9.81;100415.76;1749093;79;20978;-58
2022/05/09 07:58:17;;;;;;;6.70;3.77;;;;;;;40.38;9.91;100410.23;1761299;79;21435;-64
2022/05/09 08:00:45;;;;;;;7.03;3.52;;;;;;;40.18;10.10;100413.05;1760898;81;20949;-60
2022/05/09 08:03:20;;;;;;;5.67;3.00;;;;;;;40.14;9.85;100411.66;1761780;79;21080;-56
2022/05/09 08:05:49;;;;;;;6.30;3.10;;;;;;;40.03;9.56;100406.09;1760747;79;21002;-56
2022/05/09 08:08:17;;;;;;;4.97;3.00;;;;;;;40.10;9.58;100409.47;1760781;81;20980;-57
2022/05/09 08:10:44;;;;;;;5.03;2.95;;;;;;;39.89;9.81;100399.16;1761566;79;21259;-56
2022/05/09 08:13:13;;;;;;;5.50;2.98;;;;;;;39.76;9.92;100402.00;1760678;81;21041;-54
2022/05/09 08:15:40;;;;;;;3.75;2.90;;;;;;;40.02;9.53;100401.03;1761251;79;21039;-57
2022/05/09 08:18:07;;;;;;;7.58;3.70;;;;;;;40.03;9.79;100397.13;1761812;79;21108;-55
2022/05/09 08:20:37;;;;;;;6.95;3.30;;;;;;;40.08;10.15;100399.48;1760183;81;21034;-57
2022/05/09 08:23:07;;;;;;;6.40;3.20;;;;;;;40.18;10.23;100392.57;1762365;79;21145;-54
2022/05/09 08:25:34;;;;;;;7.28;3.50;;;;;;;40.36;9.86;100386.05;1760917;81;20988;-57
2022/05/09 08:28:03;;;;;;;10.08;4.40;;;;;;;40.42;9.50;100383.72;1761276;81;21418;-55
2022/05/09 08:30:32;;;;;;;6.92;3.15;;;;;;;39.91;10.09;100383.20;1760687;81;22212;-56
2022/05/09 08:33:04;;;;;;;6.30;3.60;;;;;;;39.40;10.30;100375.73;1761882;79;21894;-56
2022/05/09 08:35:32;;;;;;;7.62;3.70;;;;;;;39.24;10.34;100372.48;1760529;81;22302;-56
2022/05/09 08:37:59;;;;;;;7.20;3.92;;;;;;;39.01;10.48;100376.70;1760961;81;21539;-56
2022/05/09 08:40:40;;;;;;;8.13;3.80;;;;;;;38.75;10.66;100371.51;1760942;79;21487;-58
2022/05/09 08:43:24;;;;;;;7.60;3.70;;;;;;;38.59;10.79;100376.37;1745675;81;21036;-59
2022/05/09 08:46:30;;;;;;;6.47;3.40;;;;;;;38.93;10.69;100364.93;1761343;79;20933;-56
2022/05/09 08:49:29;;;;;;;5.58;3.37;;;;;;;39.12;10.86;100369.41;1761920;79;21598;-54
2022/05/09 08:55:06;;;;;;;4.37;2.70;;;;;;;39.15;10.67;100361.86;1760873;81;21820;-57
2022/05/09 08:57:44;;;;;;;5.22;2.90;;;;;;;39.07;10.69;100350.09;1760552;81;21021;-61
2022/05/09 09:00:15;;;;;;;13.65;3.85;;;;;;;38.77;10.93;100351.50;1761868;79;20961;-56
2022/05/09 09:02:49;;;;;;;7.75;2.90;;;;;;;38.67;10.89;100346.12;1761599;79;21199;-55
2022/05/09 09:05:22;;;;;;;4.47;2.70;;;;;;;38.22;11.06;100345.71;1760136;81;21049;-56
2022/05/09 09:08:00;;;;;;;6.97;3.05;;;;;;;37.70;11.36;100340.47;1749448;79;21362;-55
2022/05/09 09:10:39;;;;;;;4.87;2.70;;;;;;;36.98;11.86;100340.57;1762147;79;21530;-55
2022/05/09 09:13:31;;;;;;;;;;;;;;;36.78;11.99;100349.84;1763085;81;21104;-56
2022/05/09 09:16:12;;;;;;;5.25;2.25;;;;;;;36.94;12.11;100333.48;1761864;79;20918;-57
2022/05/09 09:19:10;;;;;;;5.75;2.55;;;;;;;37.63;11.59;100326.76;1760211;80;21024;-58
2022/05/09 09:22:01;;;;;;;3.72;2.70;;;;;;;38.57;11.33;100307.87;1760697;81;21703;-56
2022/05/09 09:25:06;;;;;;;7.12;2.65;;;;;;;38.57;11.33;100307.87;1761336;79;21426;-56
2022/05/09 09:27:45;;;;;;;4.83;2.50;;;;;;;38.98;11.40;100312.02;1760996;79;20977;-62
2022/05/09 09:30:18;;;;;;;3.55;2.17;;;;;;;39.38;11.40;100303.07;1760445;81;21224;-56
2022/05/09 09:32:59;;;;;;;3.55;2.35;;;;;;;39.48;11.04;100305.69;1760284;81;21562;-57
2022/05/09 09:35:48;;;;;;;3.10;2.40;;;;;;;39.55;11.28;100298.34;1760635;81;21045;-55
2022/05/09 09:38:39;;;;;;;4.42;2.35;;;;;;;39.96;10.88;100294.70;1760816;81;22246;-55
2022/05/09 09:41:30;;;;;;;4.80;2.72;;;;;;;39.86;10.78;100292.91;1753567;79;21059;-55
2022/05/09 09:44:23;;;;;;;4.60;2.90;;;;;;;39.75;11.03;100289.34;1751082;81;21163;-62
2022/05/09 09:47:22;;;;;;;5.80;2.47;;;;;;;39.62;10.93;100279.27;1760009;81;20912;-56
2022/05/09 09:50:09;;;;;;;4.15;2.27;;;;;;;39.31;10.99;100285.28;1748084;79;22032;-55
2022/05/09 09:52:55;;;;;;;5.65;3.40;;;;;;;39.20;11.09;100276.20;1760733;81;21000;-57
2022/05/09 09:55:36;;;;;;;6.00;2.25;;;;;;;39.47;11.13;100278.19;1760936;81;21447;-56
2022/05/09 09:58:25;;;;;;;4.22;2.50;;;;;;;40.02;10.77;100265.89;1752369;81;21267;-56
2022/05/09 10:01:13;;;;;;;8.18;2.90;;;;;;;40.02;10.72;100260.43;1750448;79;22076;-54
2022/05/09 10:03:43;;;;;;;4.92;2.72;;;;;;;39.50;10.90;100267.89;1760948;81;20985;-55
2022/05/09 10:06:21;;;;;;;4.10;2.50;;;;;;;39.16;11.14;100263.90;1760496;81;21025;-60
2022/05/09 10:09:02;;;;;;;3.62;2.70;;;;;;;39.29;11.39;100260.34;1748443;80;21513;-61
2022/05/09 10:11:30;;;;;;;4.50;2.95;;;;;;;39.41;11.28;100257.31;1760960;80;21076;-55
2022/05/09 10:14:04;;;;;;;6.67;2.58;;;;;;;39.09;11.65;100261.89;1760066;80;21035;-55
2022/05/09 10:16:51;;;;;;;8.23;3.20;;;;;;;39.16;11.85;100261.17;1728858;81;20974;-55
2022/05/09 10:19:10;;;;;;;4.08;2.50;;;;;;;39.26;11.68;100256.42;1756687;81;21127;-57
2022/05/09 10:24:52;;;;;;;4.53;2.40;;;;;;;39.04;12.02;100255.43;1760133;80;21256;-56
2022/05/09 10:27:26;;;;;;;;;;;;;;;39.34;12.05;100267.59;1762534;80;21468;-55
2022/05/09 10:30:00;;;;;;;3.52;2.67;;;;;;;39.21;11.94;100259.48;1760881;80;20166;-56
2022/05/09 10:32:39;;;;;;;6.15;3.22;;;;;;;38.64;12.08;100245.28;1760245;80;21081;-56
2022/05/09 10:35:15;;;;;;;5.67;3.05;;;;;;;38.02;12.44;100252.52;1759802;81;21567;-54
2022/05/09 10:38:02;;;;;;;7.53;2.80;;;;;;;37.65;12.79;100250.42;1742902;81;22183;-59
2022/05/09 10:40:47;;;;;;;5.08;3.00;;;;;;;37.62;13.08;100251.17;1759548;80;21075;-56
2022/05/09 10:43:22;;;;;;;6.22;3.25;;;;;;;37.72;13.05;100249.75;1724923;81;20930;-61
2022/05/09 10:45:50;;;;;;;4.40;3.12;;;;;;;37.09;13.41;100240.22;1760914;80;21793;-61
2022/05/09 10:48:43;;;;;;;6.90;2.85;;;;;;;37.09;13.41;100240.22;1760465;80;20933;-56
2022/05/09 10:51:29;;;;;;;4.92;3.50;;;;;;;36.79;13.64;100245.48;1752913;80;21269;-54
2022/05/09 10:54:14;;;;;;;4.92;3.10;;;;;;;36.51;13.89;100238.94;1759213;81;21048;-54
2022/05/09 10:56:46;;;;;;;5.80;2.83;;;;;;;36.18;14.05;100254.33;1736225;80;21105;-53
2022/05/09 10:59:28;;;;;;;11.93;3.90;;;;;;;35.95;15.01;100260.98;1760250;80;21041;-54
2022/05/09 11:02:04;;;;;;;14.90;9.03;;;;;;;35.56;17.55;100267.67;1760709;80;21065;-57
2022/05/09 11:04:31;;;;;;;22.27;15.35;;;;;;;34.90;18.68;100267.73;1728641;81;21337;-60
2022/05/09 11:07:19;;;;;;;24.47;17.55;;;;;;;34.27;18.83;100267.48;1760126;80;21953;-55
2022/05/09 11:10:32;;;;;;;28.83;22.50;;;;;;;33.79;19.03;100266.40;1758987;81;21029;-54
2022/05/09 11:13:39;;;;;;;37.77;26.87;;;;;;;33.43;18.56;100273.36;1751013;80;21084;-54
2022/05/09 11:16:40;;;;;;;49.07;31.90;;;;;;;32.84;18.78;100269.59;1693591;82;21074;-53
2022/05/09 11:19:37;;;;;;;68.77;50.90;;;;;;;32.45;19.25;100275.73;1749754;80;21279;-55
2022/05/09 11:22:22;;;;;;;75.97;55.53;;;;;;;32.23;19.71;100274.89;1756188;81;20890;-61
2022/05/09 11:25:06;;;;;;;85.53;59.57;;;;;;;32.02;20.01;100278.15;1749039;80;21025;-56
2022/05/09 11:28:07;;;;;;;90.20;65.03;;;;;;;31.76;20.18;100284.20;1758712;81;21065;-57
2022/05/09 11:30:43;;;;;;;81.00;60.63;;;;;;;31.73;20.45;100282.38;1760874;80;21092;-53
2022/05/09 11:33:44;;;;;;;76.20;61.40;;;;;;;31.62;20.61;100283.85;1759437;80;21864;-56
2022/05/09 11:36:28;;;;;;;82.83;65.60;;;;;;;31.32;20.85;100289.74;1760319;81;21020;-55
2022/05/09 11:39:30;;;;;;;75.20;60.87;;;;;;;31.24;26.14;100302.09;1761287;80;21527;-54
2022/05/09 11:45:16;;;;;;;69.27;53.87;;;;;;;29.96;29.17;100289.58;1753066;81;21567;-54
2022/05/09 11:48:07;;;;;;;69.20;52.13;;;;;;;29.53;30.90;100290.19;1737923;81;21478;-53
2022/05/09 11:51:01;;;;;;;65.20;47.13;;;;;;;29.20;30.96;100291.02;1762202;80;20902;-54
2022/05/09 11:53:32;;;;;;;48.13;39.37;;;;;;;28.80;32.26;100294.36;1761063;80;20938;-53
2022/05/09 11:56:05;;;;;;;51.28;37.67;;;;;;;28.63;32.73;100300.91;1760765;81;21006;-54